createdAt,value
2019-05-10T00:00:23.992Z,10.10
2019-05-10T00:03:10.724Z,10.00
2019-05-10T00:05:57.630Z,9.90
2019-05-10T00:08:45.599Z,9.90
2019-05-10T00:11:39.524Z,9.90
2019-05-10T00:14:29.457Z,9.90
2019-05-10T00:17:17.674Z,9.90
2019-05-10T00:19:46.541Z,9.90
2019-05-10T00:22:15.399Z,9.80
2019-05-10T00:25:00.784Z,9.80
2019-05-10T00:27:15.989Z,9.80
2019-05-10T00:29:44.893Z,9.70
2019-05-10T00:32:16.029Z,9.70
2019-05-10T00:34:45.954Z,9.70
2019-05-10T00:37:14.816Z,9.80
2019-05-10T00:39:44.117Z,9.80
2019-05-10T00:42:12.896Z,9.90
2019-05-10T00:44:41.761Z,10.00
2019-05-10T00:47:10.603Z,10.00
2019-05-10T00:49:39.459Z,10.00
2019-05-10T00:52:08.355Z,10.10
2019-05-10T00:54:37.150Z,10.10
2019-05-10T00:57:06.165Z,10.10
2019-05-10T00:59:35.047Z,10.00
2019-05-10T01:02:04.001Z,10.00
2019-05-10T01:04:32.840Z,9.90
2019-05-10T01:07:01.707Z,9.80
2019-05-10T01:09:30.483Z,9.80
2019-05-10T01:11:59.369Z,9.80
2019-05-10T01:14:28.159Z,9.90
2019-05-10T01:16:57.095Z,10.00
2019-05-10T01:19:25.973Z,9.90
2019-05-10T01:21:54.747Z,9.90
2019-05-10T01:24:23.578Z,9.90
2019-05-10T01:26:52.346Z,9.90
2019-05-10T01:29:21.140Z,9.90
2019-05-10T01:31:49.929Z,10.00
2019-05-10T01:34:18.707Z,10.10
2019-05-10T01:36:47.510Z,10.10
2019-05-10T01:39:16.339Z,10.10
2019-05-10T01:41:45.118Z,10.10
2019-05-10T01:44:13.900Z,10.10
2019-05-10T01:46:42.760Z,10.10
2019-05-10T01:49:11.858Z,10.10
2019-05-10T01:51:40.675Z,10.00
2019-05-10T01:54:09.429Z,10.00
2019-05-10T01:56:38.279Z,10.00
2019-05-10T01:59:07.104Z,10.00
2019-05-10T02:01:35.869Z,10.00
2019-05-10T02:04:07.101Z,10.00
2019-05-10T02:06:46.609Z,10.00
2019-05-10T02:09:15.430Z,10.00
2019-05-10T02:11:44.297Z,10.00
2019-05-10T02:14:13.104Z,10.00
2019-05-10T02:16:42.225Z,10.00
2019-05-10T02:19:11.027Z,10.10
2019-05-10T02:21:39.964Z,10.10
2019-05-10T02:24:08.831Z,10.10
2019-05-10T02:26:37.699Z,10.10
2019-05-10T02:29:06.445Z,10.10
2019-05-10T02:31:35.637Z,10.10
2019-05-10T02:34:04.548Z,10.00
2019-05-10T02:36:33.457Z,10.00
2019-05-10T02:39:02.308Z,10.00
2019-05-10T02:41:31.215Z,10.00
2019-05-10T02:44:00.097Z,10.00
2019-05-10T02:46:28.997Z,10.00
2019-05-10T02:48:57.904Z,10.00
2019-05-10T02:51:26.779Z,10.10
2019-05-10T02:53:55.799Z,10.00
2019-05-10T02:56:30.239Z,10.00
2019-05-10T02:58:57.197Z,10.00
2019-05-10T03:01:29.483Z,10.10
2019-05-10T03:04:01.799Z,10.00
2019-05-10T03:06:35.202Z,10.00
2019-05-10T03:09:06.842Z,10.00
2019-05-10T03:11:45.854Z,10.00
2019-05-10T03:14:18.127Z,10.00
2019-05-10T03:16:50.710Z,10.00
2019-05-10T03:19:21.095Z,9.90
2019-05-10T03:22:05.726Z,10.00
2019-05-10T03:24:34.837Z,10.00
2019-05-10T03:27:06.188Z,10.00
2019-05-10T03:29:34.977Z,10.00
2019-05-10T03:32:03.916Z,10.00
2019-05-10T03:34:32.845Z,10.00
2019-05-10T03:37:01.694Z,10.00
2019-05-10T03:39:30.796Z,10.00
2019-05-10T03:42:00.128Z,10.00
2019-05-10T03:44:29.068Z,10.00
2019-05-10T03:46:58.189Z,9.90
2019-05-10T03:49:27.015Z,9.90
2019-05-10T03:51:55.879Z,9.90
2019-05-10T03:54:24.747Z,9.90
2019-05-10T03:57:11.152Z,9.80
2019-05-10T03:59:24.197Z,9.80
2019-05-10T04:01:53.059Z,9.80
2019-05-10T04:04:22.088Z,9.80
2019-05-10T04:06:51.286Z,9.80
2019-05-10T04:09:20.411Z,9.80
2019-05-10T04:11:49.226Z,9.80
2019-05-10T04:14:18.030Z,9.80
2019-05-10T04:16:47.001Z,9.70
2019-05-10T04:19:15.810Z,9.80
2019-05-10T04:21:44.585Z,9.80
2019-05-10T04:24:13.332Z,9.80
2019-05-10T04:26:42.349Z,9.90
2019-05-10T04:29:11.157Z,9.90
2019-05-10T04:31:39.947Z,9.90
2019-05-10T04:34:08.937Z,9.90
2019-05-10T04:36:37.911Z,9.90
2019-05-10T04:39:07.749Z,10.00
2019-05-10T04:41:36.519Z,10.00
2019-05-10T04:44:05.507Z,9.90
2019-05-10T04:46:34.608Z,9.90
2019-05-10T04:49:03.397Z,9.90
2019-05-10T04:51:32.515Z,9.90
2019-05-10T04:54:01.289Z,9.80
2019-05-10T04:56:30.238Z,9.80
2019-05-10T04:58:59.048Z,9.80
2019-05-10T05:01:27.812Z,9.80
2019-05-10T05:03:56.593Z,9.80
2019-05-10T05:06:25.605Z,9.80
2019-05-10T05:08:54.390Z,9.80
2019-05-10T05:11:23.169Z,9.80
2019-05-10T05:13:51.962Z,9.80
2019-05-10T05:16:20.757Z,9.80
2019-05-10T05:18:49.834Z,9.80
2019-05-10T05:21:18.619Z,9.80
2019-05-10T05:23:47.389Z,9.80
2019-05-10T05:26:16.251Z,9.80
2019-05-10T05:28:45.037Z,9.70
2019-05-10T05:31:13.830Z,9.70
2019-05-10T05:33:42.573Z,9.70
2019-05-10T05:36:11.367Z,9.70
2019-05-10T05:38:46.450Z,9.70
2019-05-10T05:41:10.681Z,9.70
2019-05-10T05:43:45.797Z,9.70
2019-05-10T05:46:09.960Z,9.80
2019-05-10T05:48:40.296Z,9.80
2019-05-10T05:51:09.515Z,9.80
2019-05-10T05:53:42.439Z,9.80
2019-05-10T05:56:12.542Z,9.80
2019-05-10T05:58:44.592Z,9.80
2019-05-10T06:01:10.075Z,9.80
2019-05-10T06:03:38.885Z,9.80
2019-05-10T06:06:15.404Z,9.90
2019-05-10T06:08:38.323Z,9.90
2019-05-10T06:11:09.245Z,9.90
2019-05-10T06:13:37.859Z,9.90
2019-05-10T06:16:12.957Z,9.90
2019-05-10T06:18:41.723Z,9.90
2019-05-10T06:21:07.698Z,9.90
2019-05-10T06:23:36.906Z,10.00
2019-05-10T06:26:06.259Z,9.90
2019-05-10T06:28:57.400Z,9.90
2019-05-10T06:31:06.087Z,10.00
2019-05-10T06:33:34.801Z,10.00
2019-05-10T06:36:03.639Z,10.00
2019-05-10T06:38:32.474Z,10.00
2019-05-10T06:41:01.300Z,10.10
2019-05-10T06:43:30.054Z,10.10
2019-05-10T06:45:58.861Z,10.10
2019-05-10T06:48:33.180Z,10.20
2019-05-10T06:51:02.834Z,10.20
2019-05-10T06:53:28.879Z,10.20
2019-05-10T06:55:57.733Z,10.20
2019-05-10T06:58:30.472Z,10.20
2019-05-10T07:00:57.227Z,10.20
2019-05-10T07:03:26.091Z,10.30
2019-05-10T07:05:54.872Z,10.30
2019-05-10T07:08:23.744Z,10.30
2019-05-10T07:10:52.547Z,10.30
2019-05-10T07:13:21.321Z,10.40
2019-05-10T07:15:50.147Z,10.40
2019-05-10T07:18:22.509Z,10.40
2019-05-10T07:20:49.636Z,10.40
2019-05-10T07:23:18.429Z,10.40
2019-05-10T07:25:47.276Z,10.40
2019-05-10T07:28:17.600Z,10.30
2019-05-10T07:30:46.613Z,10.30
2019-05-10T07:33:15.376Z,10.40
2019-05-10T07:35:44.186Z,10.40
2019-05-10T07:38:13.069Z,10.40
2019-05-10T07:40:41.990Z,10.30
2019-05-10T07:43:10.773Z,10.40
2019-05-10T07:45:39.569Z,10.40
2019-05-10T07:48:10.400Z,10.40
2019-05-10T07:50:42.476Z,10.50
2019-05-10T07:53:09.509Z,10.50
2019-05-10T07:55:38.322Z,10.50
2019-05-10T07:58:07.433Z,10.60
2019-05-10T08:00:38.133Z,10.60
2019-05-10T08:03:15.772Z,10.60
2019-05-10T08:05:39.128Z,10.60
2019-05-10T08:08:09.599Z,10.70
2019-05-10T08:10:39.474Z,10.70
2019-05-10T08:13:08.613Z,10.80
2019-05-10T08:15:38.325Z,10.80
2019-05-10T08:18:09.631Z,10.80
2019-05-10T08:20:49.185Z,10.90
2019-05-10T08:23:08.601Z,10.90
2019-05-10T08:25:43.965Z,10.90
2019-05-10T08:28:08.068Z,10.90
2019-05-10T08:30:42.759Z,11.00
2019-05-10T08:33:12.013Z,11.00
2019-05-10T08:35:45.873Z,11.20
2019-05-10T08:38:12.948Z,11.20
2019-05-10T08:40:42.829Z,11.20
2019-05-10T08:43:16.134Z,11.20
2019-05-10T08:45:45.127Z,11.10
2019-05-10T08:48:13.307Z,11.20
2019-05-10T08:50:50.722Z,11.40
2019-05-10T08:53:16.323Z,11.40
2019-05-10T08:55:43.470Z,11.40
2019-05-10T08:58:12.813Z,11.40
2019-05-10T09:00:53.786Z,11.40
2019-05-10T09:03:18.259Z,11.20
2019-05-10T09:05:43.416Z,11.10
2019-05-10T09:08:19.490Z,11.00
2019-05-10T09:10:43.162Z,11.10
2019-05-10T09:13:12.816Z,11.30
2019-05-10T09:15:51.171Z,11.50
2019-05-10T09:18:12.953Z,11.70
2019-05-10T09:20:42.410Z,11.70
2019-05-10T09:23:15.365Z,11.50
2019-05-10T09:25:42.716Z,11.50
2019-05-10T09:28:16.883Z,11.60
2019-05-10T09:30:56.850Z,11.60
2019-05-10T09:33:14.408Z,11.60
2019-05-10T09:35:51.517Z,11.70
2019-05-10T09:38:14.102Z,11.60
2019-05-10T09:40:51.682Z,11.50
2019-05-10T09:43:14.918Z,11.50
2019-05-10T09:45:43.992Z,11.50
2019-05-10T09:48:12.918Z,11.50
2019-05-10T09:50:46.813Z,11.50
2019-05-10T09:53:16.281Z,11.60
2019-05-10T09:55:45.740Z,11.60
2019-05-10T09:58:14.718Z,11.60
2019-05-10T10:00:43.638Z,11.60
2019-05-10T10:03:13.127Z,11.70
2019-05-10T10:05:42.105Z,11.70
2019-05-10T10:08:11.149Z,11.70
2019-05-10T10:10:40.655Z,11.70
2019-05-10T10:13:13.445Z,11.70
2019-05-10T10:15:40.374Z,11.70
2019-05-10T10:18:12.743Z,11.60
2019-05-10T10:20:43.687Z,11.60
2019-05-10T10:23:10.491Z,11.50
2019-05-10T10:25:40.804Z,11.50
2019-05-10T10:28:17.047Z,11.50
2019-05-10T10:30:40.739Z,11.50
2019-05-10T10:33:11.454Z,11.50
2019-05-10T10:35:40.008Z,11.60
2019-05-10T10:38:09.035Z,11.60
2019-05-10T10:40:44.081Z,11.70
2019-05-10T10:43:10.277Z,11.70
2019-05-10T10:45:39.100Z,11.70
2019-05-10T10:48:12.619Z,11.70
2019-05-10T10:50:38.603Z,11.90
2019-05-10T10:53:08.144Z,12.00
2019-05-10T10:55:40.014Z,12.10
2019-05-10T10:58:07.653Z,12.20
2019-05-10T11:00:39.392Z,12.30
2019-05-10T11:03:08.314Z,12.40
2019-05-10T11:05:37.179Z,12.50
2019-05-10T11:08:06.158Z,12.60
2019-05-10T11:10:36.417Z,12.60
2019-05-10T11:13:13.249Z,12.50
2019-05-10T11:15:36.723Z,12.30
2019-05-10T11:18:08.297Z,12.10
2019-05-10T11:20:42.076Z,12.10
2019-05-10T11:23:10.686Z,12.10
2019-05-10T11:25:42.730Z,12.10
2019-05-10T11:28:12.113Z,12.00
2019-05-10T11:30:41.012Z,12.10
2019-05-10T11:33:23.870Z,12.30
2019-05-10T11:35:41.680Z,12.40
2019-05-10T11:38:12.863Z,12.40
2019-05-10T11:40:41.898Z,12.40
2019-05-10T11:43:11.013Z,12.50
2019-05-10T11:45:44.011Z,12.50
2019-05-10T11:48:13.806Z,12.60
2019-05-10T11:50:42.802Z,12.70
2019-05-10T11:53:14.889Z,12.70
2019-05-10T11:55:43.642Z,12.70
2019-05-10T11:58:13.323Z,12.60
2019-05-10T12:00:42.479Z,12.70
2019-05-10T12:03:18.189Z,12.70
2019-05-10T12:05:42.824Z,12.60
2019-05-10T12:10:52.394Z,12.50
2019-05-10T12:13:19.448Z,12.50
2019-05-10T12:15:43.793Z,12.50
2019-05-10T12:18:14.753Z,12.50
2019-05-10T12:20:55.640Z,12.50
2019-05-10T12:26:18.653Z,12.60
2019-05-10T12:26:33.845Z,12.60
2019-05-10T12:26:50.350Z,12.60
2019-05-10T12:28:15.538Z,12.50
2019-05-10T12:30:45.459Z,12.60
2019-05-10T12:33:23.953Z,12.60
2019-05-10T12:35:47.267Z,12.70
2019-05-10T12:38:15.466Z,12.80
2019-05-10T12:40:45.824Z,12.90
2019-05-10T12:43:14.815Z,13.00
2019-05-10T12:45:43.585Z,12.80
2019-05-10T12:48:12.546Z,12.70
2019-05-10T12:50:43.949Z,12.80
2019-05-10T12:53:15.668Z,12.80
2019-05-10T12:55:42.440Z,12.80
2019-05-10T12:58:11.284Z,12.80
2019-05-10T13:00:40.242Z,12.80
2019-05-10T13:03:12.578Z,12.70
2019-05-10T13:05:51.855Z,12.80
2019-05-10T13:08:10.161Z,12.70
2019-05-10T13:10:43.473Z,12.70
2019-05-10T13:13:10.010Z,12.70
2019-05-10T13:15:38.803Z,12.80
2019-05-10T13:18:07.656Z,12.80
2019-05-10T13:20:38.651Z,12.70
2019-05-10T13:23:09.942Z,12.80
2019-05-10T13:25:38.003Z,12.80
2019-05-10T13:28:11.104Z,12.90
2019-05-10T13:30:37.553Z,12.90
2019-05-10T13:33:06.313Z,13.00
2019-05-10T13:35:35.116Z,13.00
2019-05-10T13:38:06.419Z,12.90
2019-05-10T13:40:38.935Z,12.90
2019-05-10T13:43:06.393Z,12.90
2019-05-10T13:45:37.886Z,13.00
2019-05-10T13:48:05.911Z,13.00
2019-05-10T13:50:34.873Z,13.10
2019-05-10T13:53:03.718Z,13.10
2019-05-10T13:55:32.869Z,13.10
2019-05-10T13:58:04.327Z,12.90
2019-05-10T14:00:35.544Z,12.90
2019-05-10T14:03:04.845Z,12.90
2019-05-10T14:05:39.990Z,13.00
2019-05-10T14:08:08.495Z,13.00
2019-05-10T14:10:39.453Z,12.80
2019-05-10T14:13:10.086Z,12.80
2019-05-10T14:15:39.078Z,12.90
2019-05-10T14:18:07.882Z,12.80
2019-05-10T14:20:36.706Z,12.70
2019-05-10T14:23:05.491Z,12.70
2019-05-10T14:25:39.004Z,12.80
2019-05-10T14:28:09.738Z,12.80
2019-05-10T14:30:35.671Z,12.80
2019-05-10T14:33:08.779Z,12.70
2019-05-10T14:35:35.080Z,12.70
2019-05-10T14:38:08.432Z,12.80
2019-05-10T14:40:34.615Z,12.90
2019-05-10T14:43:03.418Z,12.80
2019-05-10T14:45:32.179Z,12.70
2019-05-10T14:48:01.164Z,12.70
2019-05-10T14:50:30.033Z,12.60
2019-05-10T14:52:58.881Z,12.70
2019-05-10T14:55:34.488Z,12.70
2019-05-10T14:58:03.515Z,12.80
2019-05-10T15:00:32.338Z,12.80
2019-05-10T15:03:02.116Z,12.70
2019-05-10T15:05:31.703Z,12.70
2019-05-10T15:08:00.762Z,12.70
2019-05-10T15:10:33.162Z,12.80
2019-05-10T15:13:00.068Z,13.00
2019-05-10T15:15:31.126Z,13.10
2019-05-10T15:18:03.419Z,13.00
2019-05-10T15:20:35.816Z,12.90
2019-05-10T15:23:04.164Z,12.70
2019-05-10T15:25:33.416Z,12.50
2019-05-10T15:28:02.243Z,12.60
2019-05-10T15:30:33.074Z,12.60
2019-05-10T15:33:02.443Z,12.70
2019-05-10T15:35:31.192Z,12.70
2019-05-10T15:38:00.108Z,12.80
2019-05-10T15:40:28.980Z,12.60
2019-05-10T15:42:57.773Z,12.50
2019-05-10T15:45:26.713Z,12.40
2019-05-10T15:47:57.608Z,12.30
2019-05-10T15:50:54.187Z,12.30
2019-05-10T15:53:25.724Z,12.50
2019-05-10T15:56:03.995Z,12.50
2019-05-10T15:58:36.516Z,12.40
2019-05-10T16:01:02.733Z,12.50
2019-05-10T16:03:31.520Z,12.50
2019-05-10T16:06:01.151Z,12.50
2019-05-10T16:08:31.898Z,12.40
2019-05-10T16:11:00.832Z,12.30
2019-05-10T16:13:29.655Z,12.30
2019-05-10T16:15:59.571Z,12.30
2019-05-10T16:18:33.571Z,12.40
2019-05-10T16:21:09.653Z,12.30
2019-05-10T16:23:41.328Z,12.20
2019-05-10T16:26:07.683Z,12.20
2019-05-10T16:28:36.457Z,12.20
2019-05-10T16:31:05.435Z,12.20
2019-05-10T16:33:35.054Z,12.30
2019-05-10T16:36:03.862Z,12.30
2019-05-10T16:38:37.184Z,12.20
2019-05-10T16:41:05.983Z,12.20
2019-05-10T16:43:34.849Z,12.20
2019-05-10T16:46:04.970Z,12.10
2019-05-10T16:48:33.795Z,12.10
2019-05-10T16:51:03.877Z,12.10
2019-05-10T16:53:37.696Z,12.00
2019-05-10T16:56:04.250Z,12.00
2019-05-10T16:58:33.034Z,12.10
2019-05-10T17:01:01.849Z,12.10
2019-05-10T17:03:33.046Z,12.10
2019-05-10T17:06:04.064Z,12.10
2019-05-10T17:08:36.579Z,12.00
2019-05-10T17:11:09.386Z,12.00
2019-05-10T17:13:36.315Z,12.10
2019-05-10T17:16:04.899Z,12.00
2019-05-10T17:18:33.779Z,12.00
2019-05-10T17:21:02.608Z,12.10
2019-05-10T17:23:33.801Z,12.10
2019-05-10T17:26:02.762Z,12.00
2019-05-10T17:28:35.410Z,11.90
2019-05-10T17:31:07.900Z,11.90
2019-05-10T17:33:36.854Z,11.90
2019-05-10T17:36:08.283Z,11.80
2019-05-10T17:38:36.397Z,11.80
2019-05-10T17:41:05.166Z,11.70
2019-05-10T17:43:35.272Z,11.70
2019-05-10T17:46:04.471Z,11.70
2019-05-10T17:48:33.305Z,11.60
2019-05-10T17:51:02.652Z,11.60
2019-05-10T17:53:31.446Z,11.50
2019-05-10T17:56:02.804Z,11.40
2019-05-10T17:58:34.846Z,11.30
2019-05-10T18:01:01.297Z,11.30
2019-05-10T18:03:30.101Z,11.30
2019-05-10T18:05:58.874Z,11.20
2019-05-10T18:08:27.668Z,11.20
2019-05-10T18:11:03.409Z,11.10
2019-05-10T18:13:29.924Z,11.10
2019-05-10T18:16:04.607Z,11.10
2019-05-10T18:18:45.682Z,11.10
2019-05-10T18:21:16.140Z,11.10
2019-05-10T18:23:42.183Z,11.10
2019-05-10T18:26:10.982Z,11.00
2019-05-10T18:28:41.933Z,10.90
2019-05-10T18:31:10.934Z,10.90
2019-05-10T18:33:44.852Z,10.80
2019-05-10T18:36:17.719Z,10.70
2019-05-10T18:38:46.526Z,10.70
2019-05-10T18:41:15.293Z,10.70
2019-05-10T18:43:45.422Z,10.60
2019-05-10T18:46:14.427Z,10.60
2019-05-10T18:48:43.242Z,10.60
2019-05-10T18:51:12.086Z,10.50
2019-05-10T18:53:42.498Z,10.50
2019-05-10T18:56:11.397Z,10.50
2019-05-10T18:58:40.319Z,10.40
2019-05-10T19:01:11.566Z,10.40
2019-05-10T19:03:40.556Z,10.40
2019-05-10T19:06:11.470Z,10.30
2019-05-10T19:08:39.859Z,10.30
2019-05-10T19:11:08.821Z,10.30
2019-05-10T19:13:46.776Z,10.30
2019-05-10T19:16:08.930Z,10.20
2019-05-10T19:18:40.831Z,10.10
2019-05-10T19:21:09.630Z,10.10
2019-05-10T19:23:38.399Z,10.00
2019-05-10T19:26:07.211Z,10.00
2019-05-10T19:28:36.315Z,10.00
2019-05-10T19:31:05.366Z,10.00
2019-05-10T19:33:36.929Z,10.00
2019-05-10T19:36:12.196Z,10.00
2019-05-10T19:38:35.927Z,9.90
2019-05-10T19:41:05.335Z,9.80
2019-05-10T19:43:34.199Z,9.80
2019-05-10T19:46:03.404Z,9.70
2019-05-10T19:48:35.583Z,9.70
2019-05-10T19:51:09.099Z,9.70
2019-05-10T19:53:36.429Z,9.70
2019-05-10T19:56:04.288Z,9.60
2019-05-10T19:58:34.059Z,9.50
2019-05-10T20:01:09.405Z,9.40
2019-05-10T20:03:38.300Z,9.40
2019-05-10T20:06:07.269Z,9.40
2019-05-10T20:08:37.696Z,9.40
2019-05-10T20:11:06.503Z,9.40
2019-05-10T20:13:36.080Z,9.40
2019-05-10T20:16:05.131Z,9.40
2019-05-10T20:18:34.298Z,9.40
2019-05-10T20:21:03.116Z,9.40
2019-05-10T20:23:32.253Z,9.40
2019-05-10T20:26:01.528Z,9.40
2019-05-10T20:28:30.681Z,9.40
2019-05-10T20:31:00.415Z,9.40
2019-05-10T20:33:29.285Z,9.50
2019-05-10T20:36:00.544Z,9.50
2019-05-10T20:38:30.808Z,9.50
2019-05-10T20:41:00.014Z,9.50
2019-05-10T20:43:38.016Z,9.50
2019-05-10T20:46:11.212Z,9.50
2019-05-10T20:48:39.186Z,9.50
2019-05-10T20:51:08.270Z,9.50
2019-05-10T20:53:37.538Z,9.40
2019-05-10T20:56:07.575Z,9.40
2019-05-10T20:58:36.626Z,9.40
2019-05-10T21:01:05.520Z,9.40
2019-05-10T21:03:34.338Z,9.40
2019-05-10T21:06:03.511Z,9.40
2019-05-10T21:08:32.356Z,9.40
2019-05-10T21:11:01.195Z,9.30
2019-05-10T21:13:31.571Z,9.30
2019-05-10T21:16:00.354Z,9.40
2019-05-10T21:18:30.370Z,9.40
2019-05-10T21:21:00.090Z,9.40
2019-05-10T21:23:29.051Z,9.40
2019-05-10T21:25:57.846Z,9.40
2019-05-10T21:28:26.642Z,9.40
2019-05-10T21:30:55.441Z,9.30
2019-05-10T21:33:24.222Z,9.20
2019-05-10T21:35:53.379Z,9.20
2019-05-10T21:38:32.401Z,9.10
2019-05-10T21:40:52.830Z,9.10
2019-05-10T21:43:21.612Z,9.00
2019-05-10T21:45:50.412Z,9.00
2019-05-10T21:48:19.263Z,8.90
2019-05-10T21:50:48.035Z,8.90
2019-05-10T21:53:16.832Z,8.90
2019-05-10T21:55:45.624Z,8.80
2019-05-10T21:58:14.437Z,8.80
2019-05-10T22:00:46.027Z,8.70
2019-05-10T22:03:14.846Z,8.70
2019-05-10T22:05:43.676Z,8.70
2019-05-10T22:08:12.715Z,8.60
2019-05-10T22:10:41.797Z,8.60
2019-05-10T22:13:10.957Z,8.60
2019-05-10T22:15:39.779Z,8.60
2019-05-10T22:18:08.760Z,8.50
2019-05-10T22:20:37.608Z,8.60
2019-05-10T22:23:06.406Z,8.50
2019-05-10T22:25:35.611Z,8.50
2019-05-10T22:28:04.593Z,8.50
2019-05-10T22:30:33.343Z,8.50
2019-05-10T22:33:02.189Z,8.50
2019-05-10T22:35:31.784Z,8.50
2019-05-10T22:38:00.770Z,8.50
2019-05-10T22:40:29.585Z,8.50
2019-05-10T22:42:58.481Z,8.50
2019-05-10T22:45:27.268Z,8.50
2019-05-10T22:47:56.594Z,8.50
2019-05-10T22:50:25.369Z,8.50
2019-05-10T22:52:54.153Z,8.40
2019-05-10T22:55:22.921Z,8.30
2019-05-10T22:57:51.889Z,8.30
2019-05-10T23:00:21.259Z,8.30
2019-05-10T23:02:50.052Z,8.20
2019-05-10T23:05:18.811Z,8.20
2019-05-10T23:07:47.648Z,8.10
2019-05-10T23:10:16.901Z,8.10
2019-05-10T23:12:45.772Z,8.10
2019-05-10T23:15:14.795Z,8.10
2019-05-10T23:17:43.633Z,8.00
2019-05-10T23:20:12.833Z,8.00
2019-05-10T23:22:41.637Z,8.00
2019-05-10T23:25:11.311Z,7.90
2019-05-10T23:27:40.230Z,7.90
2019-05-10T23:30:09.586Z,7.90
2019-05-10T23:32:38.343Z,7.80
2019-05-10T23:35:08.866Z,7.80
2019-05-10T23:37:37.814Z,7.80
2019-05-10T23:40:07.329Z,7.80
2019-05-10T23:42:36.128Z,7.80
2019-05-10T23:45:05.475Z,7.70
2019-05-10T23:47:34.405Z,7.70
2019-05-10T23:50:03.761Z,7.70
2019-05-10T23:52:32.646Z,7.70
2019-05-10T23:55:01.410Z,7.70
2019-05-10T23:57:30.769Z,7.70
2019-05-10T23:59:59.622Z,7.70
